createdAt,value
2022-10-17T00:00:12.650Z,19.98
2022-10-17T00:00:59.510Z,20.12
2022-10-17T00:01:46.562Z,20.83
2022-10-17T00:02:33.510Z,20.52
2022-10-17T00:03:20.312Z,22.00
2022-10-17T00:04:07.246Z,19.15
2022-10-17T00:04:54.162Z,20.90
2022-10-17T00:05:45.461Z,20.80
2022-10-17T00:06:32.402Z,22.30
2022-10-17T00:07:19.201Z,19.95
2022-10-17T00:08:06.191Z,20.75
2022-10-17T00:08:53.011Z,19.80
2022-10-17T00:09:43.302Z,18.70
2022-10-17T00:10:30.253Z,23.58
2022-10-17T00:11:23.020Z,18.65
2022-10-17T00:12:09.990Z,20.42
2022-10-17T00:12:56.971Z,18.98
2022-10-17T00:13:44.051Z,18.40
2022-10-17T00:14:30.941Z,20.58
2022-10-17T00:15:19.851Z,21.50
2022-10-17T00:16:07.310Z,20.75
2022-10-17T00:16:54.201Z,20.60
2022-10-17T00:17:42.236Z,20.00
2022-10-17T00:18:29.072Z,21.55
2022-10-17T00:19:16.029Z,20.42
2022-10-17T00:20:02.952Z,19.92
2022-10-17T00:20:49.900Z,17.80
2022-10-17T00:21:36.882Z,19.92
2022-10-17T00:22:23.885Z,21.05
2022-10-17T00:23:10.982Z,21.70
2022-10-17T00:23:57.861Z,19.80
2022-10-17T00:24:44.748Z,17.12
2022-10-17T00:25:31.641Z,19.42
2022-10-17T00:26:19.064Z,22.00
2022-10-17T00:27:06.001Z,22.83
2022-10-17T00:27:52.841Z,18.65
2022-10-17T00:28:39.787Z,19.42
2022-10-17T00:29:26.790Z,21.62
2022-10-17T00:30:15.760Z,20.20
2022-10-17T00:31:05.101Z,22.08
2022-10-17T00:31:56.284Z,17.50
2022-10-17T00:32:43.331Z,21.75
2022-10-17T00:33:31.330Z,18.95
2022-10-17T00:34:18.171Z,20.70
2022-10-17T00:35:06.689Z,18.95
2022-10-17T00:36:13.800Z,20.02
2022-10-17T00:37:00.692Z,17.60
2022-10-17T00:37:48.091Z,21.12
2022-10-17T00:38:35.461Z,21.92
2022-10-17T00:39:22.330Z,18.12
2022-10-17T00:40:10.281Z,20.48
2022-10-17T00:40:57.478Z,19.25
2022-10-17T00:41:44.402Z,17.83
2022-10-17T00:42:31.463Z,22.17
2022-10-17T00:43:18.843Z,17.50
2022-10-17T00:44:31.380Z,18.55
2022-10-17T00:45:28.651Z,18.95
2022-10-17T00:46:15.470Z,19.40
2022-10-17T00:47:05.192Z,19.25
2022-10-17T00:47:59.122Z,23.63
2022-10-17T00:48:46.630Z,18.15
2022-10-17T00:49:35.401Z,17.65
2022-10-17T00:50:22.483Z,19.77
2022-10-17T00:51:09.754Z,19.48
2022-10-17T00:51:59.453Z,22.08
2022-10-17T00:52:47.481Z,23.67
2022-10-17T00:53:34.662Z,18.20
2022-10-17T00:54:24.451Z,22.30
2022-10-17T00:55:18.932Z,18.77
2022-10-17T00:56:06.231Z,21.85
2022-10-17T00:56:53.342Z,19.00
2022-10-17T00:57:40.451Z,18.00
2022-10-17T00:58:27.433Z,22.73
2022-10-17T00:59:16.905Z,17.00
2022-10-17T01:00:08.592Z,18.08
2022-10-17T01:00:55.413Z,19.10
2022-10-17T01:01:43.857Z,22.67
2022-10-17T01:02:31.163Z,16.73
2022-10-17T01:03:18.253Z,17.17
2022-10-17T01:04:05.303Z,17.50
2022-10-17T01:04:55.291Z,18.55
2022-10-17T01:05:42.752Z,18.02
2022-10-17T01:06:29.710Z,17.77
2022-10-17T01:07:17.007Z,20.02
2022-10-17T01:08:04.379Z,20.50
2022-10-17T01:08:51.331Z,18.25
2022-10-17T01:09:39.411Z,17.10
2022-10-17T01:10:33.724Z,27.98
2022-10-17T01:11:22.660Z,16.58
2022-10-17T01:12:20.988Z,16.83
2022-10-17T01:13:13.820Z,17.62
2022-10-17T01:14:12.331Z,17.12
2022-10-17T01:15:12.912Z,17.08
2022-10-17T01:16:02.641Z,18.95
2022-10-17T01:17:38.802Z,15.52
2022-10-17T01:18:52.920Z,17.62
2022-10-17T01:20:13.973Z,17.23
2022-10-17T01:21:26.803Z,16.90
2022-10-17T01:22:26.763Z,16.17
2022-10-17T01:23:38.691Z,18.87
2022-10-17T01:24:34.431Z,18.23
2022-10-17T01:25:32.362Z,17.00
2022-10-17T01:26:40.801Z,16.87
2022-10-17T01:27:30.630Z,15.52
2022-10-17T01:28:32.312Z,15.70
2022-10-17T01:29:37.649Z,15.38
2022-10-17T01:30:40.961Z,20.08
2022-10-17T01:31:49.501Z,16.08
2022-10-17T01:33:06.166Z,20.02
2022-10-17T01:34:13.731Z,15.98
2022-10-17T01:35:09.450Z,18.00
2022-10-17T01:36:05.814Z,16.65
2022-10-17T01:37:06.591Z,17.87
2022-10-17T01:38:03.892Z,24.05
2022-10-17T01:38:55.721Z,16.87
2022-10-17T01:39:56.421Z,15.70
2022-10-17T01:41:07.113Z,16.75
2022-10-17T01:42:06.571Z,20.30
2022-10-17T01:43:17.836Z,15.18
2022-10-17T01:44:15.351Z,16.80
2022-10-17T01:45:24.233Z,16.42
2022-10-17T01:46:27.011Z,18.77
2022-10-17T01:47:17.056Z,16.02
2022-10-17T01:48:08.773Z,17.17
2022-10-17T01:48:56.412Z,19.48
2022-10-17T01:49:45.771Z,16.58
2022-10-17T01:50:36.601Z,15.00
2022-10-17T01:51:29.380Z,16.08
2022-10-17T01:52:21.182Z,17.70
2022-10-17T01:53:30.701Z,16.20
2022-10-17T01:54:33.035Z,16.48
2022-10-17T01:55:30.070Z,19.48
2022-10-17T01:56:18.871Z,16.17
2022-10-17T01:57:08.801Z,18.90
2022-10-17T01:58:00.580Z,22.48
2022-10-17T01:58:55.552Z,15.20
2022-10-17T01:59:44.942Z,15.45
2022-10-17T02:00:32.750Z,17.27
2022-10-17T02:01:20.413Z,18.92
2022-10-17T02:02:08.170Z,15.50
2022-10-17T02:03:02.104Z,16.83
2022-10-17T02:03:50.269Z,15.70
2022-10-17T02:04:37.632Z,15.55
2022-10-17T02:05:28.411Z,17.48
2022-10-17T02:06:15.240Z,14.87
2022-10-17T02:07:13.341Z,17.25
2022-10-17T02:08:00.211Z,16.00
2022-10-17T02:08:49.700Z,15.05
2022-10-17T02:09:36.641Z,17.58
2022-10-17T02:10:35.571Z,17.77
2022-10-17T02:11:25.484Z,15.23
2022-10-17T02:12:16.601Z,15.85
2022-10-17T02:13:28.033Z,19.30
2022-10-17T02:14:27.400Z,14.10
2022-10-17T02:15:29.321Z,15.75
2022-10-17T02:16:32.939Z,14.13
2022-10-17T02:17:30.876Z,14.80
2022-10-17T02:18:47.071Z,14.85
2022-10-17T02:19:59.180Z,15.70
2022-10-17T02:21:32.671Z,16.90
2022-10-17T02:22:30.711Z,17.62
2022-10-17T02:24:03.860Z,14.02
2022-10-17T02:24:59.300Z,15.98
2022-10-17T02:26:08.391Z,14.63
2022-10-17T02:27:01.151Z,16.30
2022-10-17T02:28:19.469Z,16.48
2022-10-17T02:29:10.571Z,17.45
2022-10-17T02:30:01.162Z,16.35
2022-10-17T02:31:48.823Z,18.77
2022-10-17T02:32:40.910Z,17.12
2022-10-17T02:33:43.681Z,15.18
2022-10-17T02:34:35.212Z,17.75
2022-10-17T02:35:23.010Z,15.48
2022-10-17T02:36:13.782Z,18.05
2022-10-17T02:37:02.747Z,14.87
2022-10-17T02:37:51.432Z,15.05
2022-10-17T02:38:38.992Z,20.12
2022-10-17T02:39:27.799Z,15.23
2022-10-17T02:40:15.801Z,15.98
2022-10-17T02:41:03.552Z,20.80
2022-10-17T02:41:51.482Z,14.95
2022-10-17T02:42:39.030Z,14.60
2022-10-17T02:43:26.032Z,19.12
2022-10-17T02:44:12.820Z,15.93
2022-10-17T02:45:01.321Z,16.17
2022-10-17T02:45:48.410Z,14.32
2022-10-17T02:46:35.810Z,16.58
2022-10-17T02:47:26.971Z,16.30
2022-10-17T02:48:28.371Z,16.42
2022-10-17T02:49:22.004Z,13.38
2022-10-17T02:50:09.030Z,14.82
2022-10-17T02:51:05.662Z,17.65
2022-10-17T02:52:10.831Z,14.60
2022-10-17T02:53:06.552Z,19.12
2022-10-17T02:54:11.552Z,19.60
2022-10-17T02:55:04.198Z,17.70
2022-10-17T02:55:55.401Z,17.52
2022-10-17T02:56:46.730Z,14.80
2022-10-17T02:57:45.243Z,14.18
2022-10-17T02:58:34.261Z,15.48
2022-10-17T02:59:22.624Z,16.62
2022-10-17T03:00:12.793Z,15.52
2022-10-17T03:01:00.685Z,14.23
2022-10-17T03:01:48.551Z,15.23
2022-10-17T03:02:50.070Z,14.77
2022-10-17T03:03:36.810Z,13.93
2022-10-17T03:04:23.555Z,15.27
2022-10-17T03:05:12.420Z,14.32
2022-10-17T03:05:59.202Z,17.70
2022-10-17T03:06:47.681Z,16.48
2022-10-17T03:07:34.452Z,16.75
2022-10-17T03:08:22.201Z,14.82
2022-10-17T03:09:09.289Z,14.30
2022-10-17T03:09:55.996Z,18.65
2022-10-17T03:10:42.722Z,18.15
2022-10-17T03:11:29.562Z,14.45
2022-10-17T03:12:16.401Z,15.05
2022-10-17T03:13:03.207Z,16.48
2022-10-17T03:13:49.941Z,16.17
2022-10-17T03:14:36.722Z,14.48
2022-10-17T03:15:23.531Z,15.60
2022-10-17T03:16:10.240Z,17.23
2022-10-17T03:16:57.031Z,14.10
2022-10-17T03:18:35.622Z,17.17
2022-10-17T03:19:22.391Z,13.85
2022-10-17T03:20:09.481Z,16.67
2022-10-17T03:20:56.271Z,15.80
2022-10-17T03:21:43.030Z,20.35
2022-10-17T03:22:30.137Z,16.00
2022-10-17T03:23:17.292Z,15.52
2022-10-17T03:24:04.983Z,17.87
2022-10-17T03:24:51.751Z,15.32
2022-10-17T03:25:38.531Z,17.27
2022-10-17T03:26:25.392Z,16.80
2022-10-17T03:27:12.302Z,16.37
2022-10-17T03:28:02.181Z,14.50
2022-10-17T03:28:51.932Z,18.23
2022-10-17T03:29:41.082Z,19.20
2022-10-17T03:30:28.455Z,15.55
2022-10-17T03:31:16.961Z,14.87
2022-10-17T03:32:03.900Z,14.27
2022-10-17T03:32:50.652Z,20.00
2022-10-17T03:33:37.941Z,19.40
2022-10-17T03:34:24.774Z,19.20
2022-10-17T03:35:14.818Z,17.27
2022-10-17T03:36:06.253Z,15.00
2022-10-17T03:36:53.135Z,15.07
2022-10-17T03:37:39.983Z,17.23
2022-10-17T03:38:26.731Z,18.08
2022-10-17T03:39:13.524Z,16.37
2022-10-17T03:40:00.303Z,16.98
2022-10-17T03:40:55.300Z,15.70
2022-10-17T03:41:42.254Z,16.60
2022-10-17T03:42:29.062Z,15.85
2022-10-17T03:43:15.842Z,17.02
2022-10-17T03:44:02.942Z,17.42
2022-10-17T03:44:49.700Z,16.15
2022-10-17T03:45:37.192Z,16.27
2022-10-17T03:46:23.931Z,15.43
2022-10-17T03:47:13.407Z,19.55
2022-10-17T03:48:01.021Z,19.37
2022-10-17T03:48:47.796Z,17.25
2022-10-17T03:49:34.553Z,16.55
2022-10-17T03:50:21.381Z,16.20
2022-10-17T03:51:09.592Z,17.02
2022-10-17T03:51:56.371Z,18.65
2022-10-17T03:52:47.103Z,19.40
2022-10-17T03:53:34.613Z,15.15
2022-10-17T03:54:21.391Z,14.77
2022-10-17T03:55:08.371Z,18.77
2022-10-17T03:55:55.412Z,15.27
2022-10-17T03:56:43.622Z,17.15
2022-10-17T03:57:30.754Z,15.63
2022-10-17T03:58:17.885Z,17.60
2022-10-17T03:59:04.620Z,18.15
2022-10-17T03:59:52.625Z,15.75
2022-10-17T04:00:39.401Z,15.45
2022-10-17T04:01:26.287Z,15.63
2022-10-17T04:02:13.132Z,14.73
2022-10-17T04:02:59.965Z,17.12
2022-10-17T04:03:51.273Z,16.70
2022-10-17T04:04:37.980Z,16.45
2022-10-17T04:05:24.781Z,16.73
2022-10-17T04:06:13.033Z,21.45
2022-10-17T04:06:59.772Z,18.48
2022-10-17T04:07:46.642Z,16.10
2022-10-17T04:08:33.982Z,17.95
2022-10-17T04:09:20.781Z,17.52
2022-10-17T04:10:07.949Z,16.55
2022-10-17T04:11:02.263Z,15.18
2022-10-17T04:11:49.071Z,16.08
2022-10-17T04:12:35.815Z,16.67
2022-10-17T04:13:22.691Z,16.20
2022-10-17T04:14:10.192Z,17.98
2022-10-17T04:14:57.470Z,15.00
2022-10-17T04:15:57.902Z,16.20
2022-10-17T04:16:44.831Z,15.27
2022-10-17T04:17:35.886Z,15.07
2022-10-17T04:18:25.441Z,16.87
2022-10-17T04:19:13.432Z,16.00
2022-10-17T04:20:00.330Z,15.48
2022-10-17T04:20:47.672Z,14.48
2022-10-17T04:21:34.432Z,16.15
2022-10-17T04:22:21.192Z,17.30
2022-10-17T04:23:07.972Z,15.27
2022-10-17T04:23:56.201Z,16.48
2022-10-17T04:24:43.033Z,14.90
2022-10-17T04:25:33.384Z,14.60
2022-10-17T04:26:22.810Z,17.17
2022-10-17T04:27:09.581Z,17.17
2022-10-17T04:27:56.301Z,15.55
2022-10-17T04:28:43.092Z,16.60
2022-10-17T04:29:29.891Z,15.07
2022-10-17T04:30:16.920Z,18.73
2022-10-17T04:31:08.552Z,16.02
2022-10-17T04:31:56.202Z,15.82
2022-10-17T04:32:43.100Z,18.73
2022-10-17T04:33:31.729Z,15.65
2022-10-17T04:34:18.712Z,17.02
2022-10-17T04:35:05.960Z,17.05
2022-10-17T04:36:01.070Z,18.95
2022-10-17T04:36:47.831Z,16.37
2022-10-17T04:37:34.583Z,17.77
2022-10-17T04:38:24.888Z,15.70
2022-10-17T04:40:06.623Z,14.82
2022-10-17T04:40:53.580Z,15.98
2022-10-17T04:41:40.477Z,14.80
2022-10-17T04:42:29.585Z,20.08
2022-10-17T04:43:16.582Z,16.00
2022-10-17T04:44:03.943Z,15.32
2022-10-17T04:44:50.681Z,16.25
2022-10-17T04:45:37.431Z,16.52
2022-10-17T04:46:24.517Z,16.25
2022-10-17T04:47:11.311Z,19.30
2022-10-17T04:47:58.084Z,14.65
2022-10-17T04:48:45.062Z,17.15
2022-10-17T04:49:31.848Z,16.60
2022-10-17T04:50:18.690Z,19.37
2022-10-17T04:51:12.792Z,16.90
2022-10-17T04:51:59.611Z,15.82
2022-10-17T04:52:46.303Z,19.95
2022-10-17T04:53:34.481Z,15.55
2022-10-17T04:54:21.212Z,18.10
2022-10-17T04:55:08.241Z,17.02
2022-10-17T04:55:55.073Z,19.92
2022-10-17T04:56:41.872Z,16.10
2022-10-17T04:57:28.733Z,17.98
2022-10-17T04:58:16.172Z,17.27
2022-10-17T04:59:02.992Z,18.20
2022-10-17T04:59:49.826Z,14.68
2022-10-17T05:00:36.657Z,17.23
2022-10-17T05:01:24.153Z,15.07
2022-10-17T05:02:10.991Z,16.48
2022-10-17T05:02:57.803Z,19.08
2022-10-17T05:03:45.361Z,17.50
2022-10-17T05:04:32.189Z,17.35
2022-10-17T05:05:18.983Z,15.18
2022-10-17T05:06:11.759Z,16.98
2022-10-17T05:06:58.557Z,18.52
2022-10-17T05:07:45.422Z,16.98
2022-10-17T05:08:32.693Z,17.25
2022-10-17T05:09:19.481Z,15.85
2022-10-17T05:10:06.741Z,15.55
2022-10-17T05:10:53.531Z,13.88
2022-10-17T05:11:40.310Z,15.23
2022-10-17T05:12:27.397Z,15.10
2022-10-17T05:13:14.711Z,17.33
2022-10-17T05:14:02.505Z,15.50
2022-10-17T05:14:49.279Z,15.13
2022-10-17T05:15:36.943Z,20.23
2022-10-17T05:16:24.937Z,17.62
2022-10-17T05:17:11.872Z,15.80
2022-10-17T05:17:59.022Z,16.77
2022-10-17T05:18:52.693Z,15.05
2022-10-17T05:19:40.091Z,14.98
2022-10-17T05:20:27.328Z,17.95
2022-10-17T05:21:14.111Z,17.58
2022-10-17T05:22:00.912Z,13.68
2022-10-17T05:22:47.702Z,15.65
2022-10-17T05:23:34.591Z,15.18
2022-10-17T05:24:21.420Z,17.77
2022-10-17T05:25:08.610Z,14.70
2022-10-17T05:25:56.011Z,16.83
2022-10-17T05:26:42.832Z,20.08
2022-10-17T05:27:29.622Z,16.30
2022-10-17T05:28:16.483Z,14.93
2022-10-17T05:29:04.125Z,13.80
2022-10-17T05:29:51.004Z,13.90
2022-10-17T05:30:37.815Z,16.40
2022-10-17T05:31:24.571Z,15.32
2022-10-17T05:32:11.560Z,14.45
2022-10-17T05:32:58.370Z,15.02
2022-10-17T05:33:45.175Z,14.13
2022-10-17T05:34:32.153Z,16.00
2022-10-17T05:35:18.885Z,13.62
2022-10-17T05:36:06.442Z,15.82
2022-10-17T05:36:53.221Z,14.45
2022-10-17T05:37:40.070Z,13.93
2022-10-17T05:38:27.881Z,15.15
2022-10-17T05:39:15.392Z,14.65
2022-10-17T05:40:02.404Z,14.07
2022-10-17T05:40:49.321Z,16.77
2022-10-17T05:41:36.191Z,13.82
2022-10-17T05:42:23.062Z,14.32
2022-10-17T05:43:09.943Z,14.68
2022-10-17T05:43:57.819Z,17.27
2022-10-17T05:44:46.292Z,14.52
2022-10-17T05:45:33.170Z,13.18
2022-10-17T05:46:20.061Z,15.65
2022-10-17T05:47:06.774Z,15.13
2022-10-17T05:47:53.510Z,15.32
2022-10-17T05:48:40.301Z,15.18
2022-10-17T05:49:33.229Z,14.23
2022-10-17T05:50:30.652Z,14.30
2022-10-17T05:51:17.372Z,13.52
2022-10-17T05:52:04.184Z,12.98
2022-10-17T05:52:55.062Z,12.90
2022-10-17T05:53:42.697Z,14.38
2022-10-17T05:54:29.552Z,14.63
2022-10-17T05:55:16.321Z,12.93
2022-10-17T05:56:06.011Z,13.88
2022-10-17T05:56:53.731Z,12.70
2022-10-17T05:57:40.644Z,17.02
2022-10-17T05:59:35.121Z,13.38
2022-10-17T06:00:22.507Z,13.75
2022-10-17T06:01:12.772Z,15.90
2022-10-17T06:02:00.312Z,16.52
2022-10-17T06:02:47.234Z,15.98
2022-10-17T06:03:34.414Z,16.23
2022-10-17T06:04:21.243Z,14.30
2022-10-17T06:05:08.438Z,15.10
2022-10-17T06:05:55.311Z,13.85
2022-10-17T06:06:42.121Z,13.25
2022-10-17T06:07:28.831Z,12.85
2022-10-17T06:08:15.561Z,13.70
2022-10-17T06:09:02.351Z,16.65
2022-10-17T06:09:49.115Z,16.95
2022-10-17T06:10:35.892Z,15.52
2022-10-17T06:11:22.695Z,15.52
2022-10-17T06:12:09.524Z,16.52
2022-10-17T06:12:57.757Z,14.87
2022-10-17T06:13:44.630Z,13.13
2022-10-17T06:14:31.348Z,17.27
2022-10-17T06:15:18.330Z,15.95
2022-10-17T06:16:05.890Z,15.27
2022-10-17T06:16:52.634Z,12.98
2022-10-17T06:17:42.439Z,13.82
2022-10-17T06:18:29.381Z,13.50
2022-10-17T06:19:16.224Z,14.82
2022-10-17T06:20:02.981Z,15.93
2022-10-17T06:20:50.061Z,15.10
2022-10-17T06:21:38.802Z,13.02
2022-10-17T06:22:25.620Z,15.15
2022-10-17T06:23:12.481Z,15.07
2022-10-17T06:23:59.201Z,13.32
2022-10-17T06:24:46.400Z,13.43
2022-10-17T06:25:33.942Z,15.02
2022-10-17T06:26:20.903Z,15.00
2022-10-17T06:27:11.039Z,14.77
2022-10-17T06:27:59.472Z,19.35
2022-10-17T06:28:46.286Z,14.70
2022-10-17T06:29:33.063Z,13.45
2022-10-17T06:30:19.927Z,13.55
2022-10-17T06:31:12.412Z,13.85
2022-10-17T06:31:59.121Z,16.45
2022-10-17T06:32:45.921Z,19.17
2022-10-17T06:33:32.781Z,13.98
2022-10-17T06:34:19.960Z,16.17
2022-10-17T06:35:07.276Z,13.77
2022-10-17T06:35:56.143Z,17.08
2022-10-17T06:36:43.207Z,13.35
2022-10-17T06:37:36.375Z,14.63
2022-10-17T06:38:24.241Z,13.23
2022-10-17T06:39:11.061Z,17.62
2022-10-17T06:39:58.030Z,15.25
2022-10-17T06:40:45.006Z,13.68
2022-10-17T06:41:31.841Z,15.07
2022-10-17T06:42:18.899Z,13.77
2022-10-17T06:43:06.171Z,13.77
2022-10-17T06:43:53.062Z,18.02
2022-10-17T06:44:41.261Z,13.68
2022-10-17T06:45:28.121Z,14.13
2022-10-17T06:46:17.252Z,14.57
2022-10-17T06:47:04.121Z,14.43
2022-10-17T06:47:50.962Z,14.10
2022-10-17T06:48:37.860Z,14.23
2022-10-17T06:49:25.007Z,15.48
2022-10-17T06:50:11.834Z,17.15
2022-10-17T06:51:03.110Z,14.93
2022-10-17T06:51:49.972Z,12.90
2022-10-17T06:52:36.901Z,16.87
2022-10-17T06:53:25.362Z,22.20
2022-10-17T06:54:12.251Z,17.02
2022-10-17T06:54:59.075Z,17.42
2022-10-17T06:55:45.981Z,16.92
2022-10-17T06:56:32.923Z,19.40
2022-10-17T06:57:19.841Z,17.98
2022-10-17T06:58:06.673Z,18.83
2022-10-17T06:58:54.131Z,15.77
2022-10-17T06:59:41.028Z,15.43
2022-10-17T07:00:27.917Z,16.05
2022-10-17T07:01:14.832Z,17.48
2022-10-17T07:02:02.335Z,17.20
2022-10-17T07:02:49.534Z,17.62
2022-10-17T07:03:36.892Z,16.40
2022-10-17T07:04:23.782Z,16.10
2022-10-17T07:05:10.660Z,22.42
2022-10-17T07:05:58.233Z,18.23
2022-10-17T07:06:45.568Z,19.10
2022-10-17T07:07:32.810Z,15.68
2022-10-17T07:08:19.821Z,15.07
2022-10-17T07:09:10.054Z,18.27
2022-10-17T07:09:56.944Z,18.62
2022-10-17T07:10:43.822Z,16.10
2022-10-17T07:11:30.804Z,18.73
2022-10-17T07:12:17.711Z,16.98
2022-10-17T07:13:04.801Z,17.33
2022-10-17T07:13:51.689Z,17.98
2022-10-17T07:14:38.418Z,16.30
2022-10-17T07:15:25.143Z,16.02
2022-10-17T07:16:12.559Z,16.20
2022-10-17T07:16:59.786Z,15.80
2022-10-17T07:17:50.701Z,19.23
2022-10-17T07:18:37.642Z,14.98
2022-10-17T07:19:24.690Z,20.02
2022-10-17T07:20:11.711Z,19.27
2022-10-17T07:20:58.660Z,13.02
2022-10-17T07:21:45.520Z,19.30
2022-10-17T07:22:32.531Z,13.62
2022-10-17T07:23:19.520Z,14.82
2022-10-17T07:24:07.754Z,22.15
2022-10-17T07:24:54.553Z,18.33
2022-10-17T07:25:41.510Z,23.17
2022-10-17T07:26:28.534Z,16.77
2022-10-17T07:27:15.703Z,15.07
2022-10-17T07:28:02.941Z,17.08
2022-10-17T07:28:53.515Z,14.77
2022-10-17T07:30:27.301Z,19.20
2022-10-17T07:31:17.073Z,15.52
2022-10-17T07:32:06.672Z,16.87
2022-10-17T07:32:54.571Z,15.52
2022-10-17T07:33:41.997Z,18.00
2022-10-17T07:34:31.601Z,16.85
2022-10-17T07:35:19.195Z,16.58
2022-10-17T07:36:06.681Z,17.00
2022-10-17T07:36:54.311Z,14.20
2022-10-17T07:37:41.923Z,14.38
2022-10-17T07:38:29.317Z,19.35
2022-10-17T07:39:16.311Z,15.70
2022-10-17T07:40:04.173Z,14.93
2022-10-17T07:40:57.631Z,13.82
2022-10-17T07:41:44.605Z,14.23
2022-10-17T07:42:31.610Z,12.40
2022-10-17T07:43:18.571Z,15.05
2022-10-17T07:44:05.921Z,16.50
2022-10-17T07:44:52.745Z,15.65
2022-10-17T07:45:41.592Z,14.98
2022-10-17T07:46:28.413Z,16.33
2022-10-17T07:47:15.364Z,12.50
2022-10-17T07:48:02.253Z,16.12
2022-10-17T07:48:49.287Z,15.13
2022-10-17T07:49:36.270Z,15.50
2022-10-17T07:50:23.460Z,14.05
2022-10-17T07:51:10.881Z,17.55
2022-10-17T07:51:57.741Z,13.62
2022-10-17T07:52:44.650Z,16.60
2022-10-17T07:53:31.700Z,22.02
2022-10-17T07:54:18.694Z,20.52
2022-10-17T07:55:06.221Z,14.98
2022-10-17T07:55:53.221Z,13.35
2022-10-17T07:56:40.143Z,15.60
2022-10-17T07:57:27.059Z,13.70
2022-10-17T07:58:14.823Z,12.02
2022-10-17T07:59:03.952Z,9.57
2022-10-17T07:59:54.600Z,13.52
2022-10-17T08:00:41.694Z,13.32
2022-10-17T08:01:28.731Z,12.68
2022-10-17T08:02:23.862Z,11.07
2022-10-17T08:03:11.280Z,11.32
2022-10-17T08:03:58.150Z,12.93
2022-10-17T08:04:44.918Z,11.00
2022-10-17T08:05:32.490Z,12.23
2022-10-17T08:06:19.400Z,11.70
2022-10-17T08:07:19.615Z,10.75
2022-10-17T08:08:08.954Z,12.70
2022-10-17T08:08:55.990Z,10.63
2022-10-17T08:09:44.262Z,14.98
2022-10-17T08:10:31.112Z,13.77
2022-10-17T08:11:18.190Z,10.43
2022-10-17T08:12:05.315Z,12.27
2022-10-17T08:12:52.164Z,11.95
2022-10-17T08:13:40.551Z,10.10
2022-10-17T08:14:27.390Z,13.70
2022-10-17T08:15:14.281Z,10.55
2022-10-17T08:16:07.562Z,10.15
2022-10-17T08:16:55.292Z,13.18
2022-10-17T08:17:42.162Z,11.48
2022-10-17T08:18:29.474Z,11.40
2022-10-17T08:19:16.521Z,9.52
2022-10-17T08:20:05.785Z,10.13
2022-10-17T08:20:55.638Z,11.55
2022-10-17T08:21:47.124Z,13.85
2022-10-17T08:22:33.992Z,9.52
2022-10-17T08:23:21.200Z,17.52
2022-10-17T08:24:08.033Z,11.20
2022-10-17T08:24:55.063Z,10.38
2022-10-17T08:25:41.962Z,10.38
2022-10-17T08:26:29.251Z,12.30
2022-10-17T08:27:21.641Z,11.75
2022-10-17T08:29:00.455Z,9.07
2022-10-17T08:29:49.039Z,11.55
2022-10-17T08:30:36.450Z,11.65
2022-10-17T08:31:23.534Z,12.50
2022-10-17T08:32:10.566Z,13.30
2022-10-17T08:32:57.481Z,13.57
2022-10-17T08:33:44.491Z,10.27
2022-10-17T08:34:31.391Z,10.05
2022-10-17T08:35:18.400Z,10.43
2022-10-17T08:36:06.481Z,9.82
2022-10-17T08:36:53.381Z,9.73
2022-10-17T08:37:40.350Z,12.13
2022-10-17T08:38:32.003Z,8.82
2022-10-17T08:39:21.710Z,8.50
2022-10-17T08:40:34.061Z,13.73
2022-10-17T08:41:20.890Z,9.30
2022-10-17T08:42:28.110Z,11.00
2022-10-17T08:43:39.781Z,9.20
2022-10-17T08:45:11.558Z,10.15
2022-10-17T08:46:03.284Z,10.25
2022-10-17T08:46:52.842Z,11.57
2022-10-17T08:47:43.022Z,12.23
2022-10-17T08:48:33.623Z,12.95
2022-10-17T08:50:56.792Z,11.73
2022-10-17T08:51:50.034Z,10.05
2022-10-17T08:52:43.241Z,13.75
2022-10-17T08:53:40.204Z,12.32
2022-10-17T08:54:39.319Z,16.27
2022-10-17T08:55:33.551Z,11.52
2022-10-17T08:56:44.028Z,10.38
2022-10-17T08:57:31.709Z,10.13
2022-10-17T08:58:28.468Z,13.18
2022-10-17T08:59:26.843Z,11.38
2022-10-17T09:00:19.312Z,11.75
2022-10-17T09:01:14.976Z,11.25
2022-10-17T09:02:04.022Z,12.88
2022-10-17T09:03:09.107Z,12.45
2022-10-17T09:04:05.400Z,9.35
2022-10-17T09:04:57.640Z,13.65
2022-10-17T09:05:51.560Z,12.13
2022-10-17T09:06:41.243Z,11.45
2022-10-17T09:07:31.502Z,14.57
2022-10-17T09:08:37.180Z,11.20
2022-10-17T09:09:51.610Z,10.90
2022-10-17T09:10:56.061Z,10.23
2022-10-17T09:11:52.842Z,10.60
2022-10-17T09:12:44.560Z,10.13
2022-10-17T09:13:34.400Z,12.68
2022-10-17T09:14:39.891Z,10.23
2022-10-17T09:16:03.673Z,12.32
2022-10-17T09:16:50.535Z,12.90
2022-10-17T09:17:52.053Z,10.43
2022-10-17T09:18:46.815Z,10.13
2022-10-17T09:19:44.550Z,10.00
2022-10-17T09:20:43.512Z,11.98
2022-10-17T09:21:38.762Z,10.85
2022-10-17T09:22:28.981Z,11.40
2022-10-17T09:23:25.109Z,10.35
2022-10-17T09:24:19.423Z,10.05
2022-10-17T09:25:11.653Z,10.75
2022-10-17T09:26:00.236Z,10.65
2022-10-17T09:26:47.271Z,11.00
2022-10-17T09:27:42.231Z,13.20
2022-10-17T09:28:34.807Z,12.05
2022-10-17T09:29:29.601Z,11.48
2022-10-17T09:30:44.232Z,9.75
2022-10-17T09:31:35.860Z,10.45
2022-10-17T09:32:25.623Z,10.80
2022-10-17T09:33:23.264Z,10.90
2022-10-17T09:34:22.891Z,9.82
2022-10-17T09:36:01.500Z,10.05
2022-10-17T09:36:48.472Z,10.15
2022-10-17T09:37:35.933Z,10.82
2022-10-17T09:38:26.606Z,10.55
2022-10-17T09:39:17.519Z,10.50
2022-10-17T09:40:08.340Z,12.37
2022-10-17T09:40:58.033Z,16.37
2022-10-17T09:41:55.777Z,12.15
2022-10-17T09:42:44.841Z,10.30
2022-10-17T09:43:31.751Z,9.65
2022-10-17T09:44:32.222Z,12.75
2022-10-17T09:45:27.361Z,12.45
2022-10-17T09:46:26.534Z,10.70
2022-10-17T09:47:25.450Z,11.50
2022-10-17T09:48:23.134Z,12.02
2022-10-17T09:49:14.809Z,9.80
2022-10-17T09:50:03.711Z,9.23
2022-10-17T09:50:57.915Z,10.93
2022-10-17T09:51:55.530Z,11.05
2022-10-17T09:52:48.882Z,9.60
2022-10-17T09:53:41.861Z,9.63
2022-10-17T09:54:52.091Z,11.38
2022-10-17T09:55:43.120Z,9.52
2022-10-17T09:56:30.272Z,11.45
2022-10-17T09:57:18.782Z,8.48
2022-10-17T09:58:07.426Z,10.88
2022-10-17T09:58:57.601Z,10.57
2022-10-17T09:59:45.890Z,10.95
2022-10-17T10:00:38.204Z,9.95
2022-10-17T10:01:29.203Z,13.05
2022-10-17T10:03:21.925Z,9.10
2022-10-17T10:04:16.829Z,10.70
2022-10-17T10:05:07.304Z,11.55
2022-10-17T10:06:14.321Z,11.45
2022-10-17T10:07:04.101Z,10.10
2022-10-17T10:08:04.118Z,10.10
2022-10-17T10:08:56.264Z,10.27
2022-10-17T10:09:47.529Z,10.52
2022-10-17T10:10:34.511Z,8.43
2022-10-17T10:11:27.401Z,9.45
2022-10-17T10:12:23.292Z,10.07
2022-10-17T10:13:20.559Z,9.07
2022-10-17T10:14:13.414Z,11.43
2022-10-17T10:15:00.557Z,10.13
2022-10-17T10:15:49.784Z,10.50
2022-10-17T10:16:43.022Z,13.07
2022-10-17T10:17:37.351Z,10.52
2022-10-17T10:18:27.530Z,11.40
2022-10-17T10:19:30.631Z,10.23
2022-10-17T10:20:36.281Z,9.15
2022-10-17T10:21:25.605Z,10.10
2022-10-17T10:22:17.291Z,9.45
2022-10-17T10:23:22.470Z,9.75
2022-10-17T10:24:09.300Z,9.80
2022-10-17T10:25:11.735Z,8.13
2022-10-17T10:26:01.801Z,9.73
2022-10-17T10:26:49.595Z,10.35
2022-10-17T10:27:37.131Z,8.95
2022-10-17T10:28:27.605Z,12.40
2022-10-17T10:30:28.512Z,9.93
2022-10-17T10:31:15.444Z,9.57
2022-10-17T10:32:24.221Z,8.35
2022-10-17T10:33:12.391Z,13.70
2022-10-17T10:34:01.001Z,9.05
2022-10-17T10:34:57.685Z,11.20
2022-10-17T10:36:03.653Z,10.07
2022-10-17T10:37:05.534Z,9.98
2022-10-17T10:37:54.722Z,8.85
2022-10-17T10:38:42.903Z,10.38
2022-10-17T10:39:36.832Z,9.32
2022-10-17T10:40:31.258Z,11.90
2022-10-17T10:41:18.244Z,9.27
2022-10-17T10:42:08.582Z,8.88
2022-10-17T10:43:01.311Z,10.25
2022-10-17T10:43:52.583Z,9.07
2022-10-17T10:44:40.975Z,9.55
2022-10-17T10:45:47.106Z,11.98
2022-10-17T10:46:34.876Z,10.93
2022-10-17T10:47:27.555Z,8.75
2022-10-17T10:48:27.263Z,9.23
2022-10-17T10:49:30.928Z,9.40
2022-10-17T10:50:44.372Z,8.70
2022-10-17T10:51:35.814Z,8.88
2022-10-17T10:52:44.202Z,9.95
2022-10-17T10:53:55.202Z,8.50
2022-10-17T10:54:51.830Z,9.90
2022-10-17T10:55:50.753Z,11.05
2022-10-17T10:56:40.710Z,9.25
2022-10-17T10:57:29.868Z,10.35
2022-10-17T10:58:28.021Z,8.27
2022-10-17T10:59:23.523Z,8.77
2022-10-17T11:00:16.388Z,9.07
2022-10-17T11:01:07.557Z,8.38
2022-10-17T11:01:55.672Z,9.70
2022-10-17T11:02:47.888Z,17.42
2022-10-17T11:03:56.145Z,9.52